Time;durP1;ratioP1;P1;durP2;ratioP2;P2;SDS_P1;SDS_P2;PMS_P1;PMS_P2;Temp;Humidity;BMP_temperature;BMP_pressure;BME280_temperature;BME280_humidity;BME280_pressure;Samples;Min_cycle;Max_cycle;Signal;HPM_P1;HPM_P2
2022/08/24 00:00:07;;;;;;;;;;;;;;;;;;1022290;28;4153;-55
2022/08/24 00:00:57;;;;;;;;;;;;;;;;;;1017167;29;4051;-52
2022/08/24 00:01:28;;;;;;;;;;;;;;;;;;1015537;29;4283;-54
2022/08/24 00:01:58;;;;;;;;;;;;;;;;;;1018699;29;2712;-50
2022/08/24 00:02:28;;;;;;;;;;;;;;;;;;1018634;28;3979;-56
2022/08/24 00:03:19;;;;;;;;;;;;;;;;;;1021338;28;3193;-51
2022/08/24 00:03:58;;;;;;;;;;;;;;;;;;1021291;28;4031;-55
2022/08/24 00:04:28;;;;;;;;;;;;;;;;;;1021784;28;3901;-52
2022/08/24 00:04:58;;;;;;;;;;;;;;;;;;1020727;28;3667;-54
2022/08/24 00:05:29;;;;;;;;;;;;;;;;;;1021650;28;4069;-55
2022/08/24 00:05:59;;;;;;;;;;;;;;;;;;1021881;28;2914;-52
2022/08/24 00:06:29;;;;;;;;;;;;;;;;;;1020847;28;3901;-52
2022/08/24 00:07:00;;;;;;;;;;;;;;;;;;1022507;28;1421;-51
2022/08/24 00:07:31;;;;;;;;;;;;;;;;;;1021826;28;4069;-54
2022/08/24 00:08:01;;;;;;;;;;;;;;;;;;1022144;28;2480;-51
2022/08/24 00:08:32;;;;;;;;;;;;;;;;;;1021519;28;4033;-53
2022/08/24 00:09:02;;;;;;;;;;;;;;;;;;1020993;28;3449;-52
2022/08/24 00:09:33;;;;;;;;;;;;;;;;;;1021112;28;4112;-52
2022/08/24 00:10:05;;;;;;;;;;;;;;;;;;1022700;28;3621;-52
2022/08/24 00:10:35;;;;;;;;;;;;;;;;;;1021451;28;4082;-51
2022/08/24 00:11:06;;;;;;;;;;;;;;;;;;1018905;28;3799;-52
2022/08/24 00:11:36;;;;;;;;;;;;;;;;;;1020973;28;3818;-53
2022/08/24 00:12:07;;;;;;;;;;;;;;;;;;1022564;28;3410;-53
2022/08/24 00:12:37;;;;;;;;;;;;;;;;;;1021090;28;3862;-54
2022/08/24 00:13:08;;;;;;;;;;;;;;;;;;1019224;28;3207;-53
2022/08/24 00:13:38;;;;;;;;;;;;;;;;;;1020976;28;3895;-54
2022/08/24 00:14:10;;;;;;;;;;;;;;;;;;1021583;28;3706;-54
2022/08/24 00:14:41;;;;;;;;;;;;;;;;;;1021334;28;4156;-54
2022/08/24 00:15:12;;;;;;;;;;;;;;;;;;1020962;28;3707;-52
2022/08/24 00:15:42;;;;;;;;;;;;;;;;;;1021792;28;4056;-52
2022/08/24 00:16:13;;;;;;;;;;;;;;;;;;1021232;28;3444;-54
2022/08/24 00:16:44;;;;;;;;;;;;;;;;;;1021791;28;4218;-51
2022/08/24 00:17:14;;;;;;;;;;;;;;;;;;1022391;28;1266;-53
2022/08/24 00:17:44;;;;;;;;;;;;;;;;;;1022632;28;3787;-52
2022/08/24 00:18:15;;;;;;;;;;;;;;;;;;1021087;28;3577;-50
2022/08/24 00:18:46;;;;;;;;;;;;;;;;;;1019554;28;4361;-54
2022/08/24 00:19:16;;;;;;;;;;;;;;;;;;1020942;28;3653;-56
2022/08/24 00:19:46;;;;;;;;;;;;;;;;;;1021259;28;3973;-54
2022/08/24 00:20:17;;;;;;;;;;;;;;;;;;1020798;28;3769;-50
2022/08/24 00:20:47;;;;;;;;;;;;;;;;;;1022128;28;4919;-55
2022/08/24 00:21:24;;;;;;;;;;;;;;;;;;1020646;28;3819;-51
2022/08/24 00:21:55;;;;;;;;;;;;;;;;;;1020231;28;3191;-51
2022/08/24 00:22:25;;;;;;;;;;;;;;;;;;1020795;28;3882;-52
2022/08/24 00:22:55;;;;;;;;;;;;;;;;;;1021514;28;3554;-53
2022/08/24 00:23:25;;;;;;;;;;;;;;;;;;1020585;28;3989;-53
2022/08/24 00:23:56;;;;;;;;;;;;;;;;;;1019190;28;4282;-52
2022/08/24 00:24:27;;;;;;;;;;;;;;;;;;1021964;28;4084;-50
2022/08/24 00:24:58;;;;;;;;;;;;;;;;;;1021909;28;3288;-53
2022/08/24 00:25:28;;;;;;;;;;;;;;;;;;1022152;28;4127;-52
2022/08/24 00:26:13;;;;;;;;;;;;;;;;;;1020727;28;3963;-51
2022/08/24 00:26:50;;;;;;;;;;;;;;;;;;1020916;28;4343;-53
2022/08/24 00:27:20;;;;;;;;;;;;;;;;;;1022287;28;3949;-53
2022/08/24 00:27:50;;;;;;;;;;;;;;;;;;1022560;28;4003;-49
2022/08/24 00:28:21;;;;;;;;;;;;;;;;;;1020803;28;2867;-53
2022/08/24 00:28:51;;;;;;;;;;;;;;;;;;1022634;28;4135;-52
2022/08/24 00:29:22;;;;;;;;;;;;;;;;;;1021271;28;2960;-48
2022/08/24 00:29:52;;;;;;;;;;;;;;;;;;1021437;28;3773;-55
2022/08/24 00:30:23;;;;;;;;;;;;;;;;;;1018709;28;4704;-54
2022/08/24 00:30:53;;;;;;;;;;;;;;;;;;1022709;28;1655;-54
2022/08/24 00:31:23;;;;;;;;;;;;;;;;;;1016827;29;4180;-50
2022/08/24 00:31:54;;;;;;;;;;;;;;;;;;1020295;28;3730;-54
2022/08/24 00:32:24;;;;;;;;;;;;;;;;;;1019807;28;3981;-55
2022/08/24 00:32:55;;;;;;;;;;;;;;;;;;1020475;28;4075;-55
2022/08/24 00:33:25;;;;;;;;;;;;;;;;;;1021213;28;3949;-51
2022/08/24 00:33:55;;;;;;;;;;;;;;;;;;1020165;28;3602;-52
2022/08/24 00:34:26;;;;;;;;;;;;;;;;;;1020846;28;4054;-55
2022/08/24 00:34:57;;;;;;;;;;;;;;;;;;1020466;28;3517;-50
2022/08/24 00:35:27;;;;;;;;;;;;;;;;;;1021909;28;4105;-53
2022/08/24 00:35:58;;;;;;;;;;;;;;;;;;1025938;28;1218;-52
2022/08/24 00:36:28;;;;;;;;;;;;;;;;;;1025451;28;4068;-54
2022/08/24 00:36:58;;;;;;;;;;;;;;;;;;1026765;28;1717;-55
2022/08/24 00:37:29;;;;;;;;;;;;;;;;;;1025317;28;4060;-55
2022/08/24 00:37:59;;;;;;;;;;;;;;;;;;1021851;28;3427;-55
2022/08/24 00:38:29;;;;;;;;;;;;;;;;;;1021044;28;3926;-53
2022/08/24 00:39:00;;;;;;;;;;;;;;;;;;1021008;28;3259;-53
2022/08/24 00:39:30;;;;;;;;;;;;;;;;;;1021370;28;3894;-53
2022/08/24 00:40:02;;;;;;;;;;;;;;;;;;1022475;28;3767;-50
2022/08/24 00:40:34;;;;;;;;;;;;;;;;;;1020764;28;4085;-51
2022/08/24 00:41:05;;;;;;;;;;;;;;;;;;1020678;28;3569;-53
2022/08/24 00:41:38;;;;;;;;;;;;;;;;;;1022752;28;4072;-54
2022/08/24 00:42:08;;;;;;;;;;;;;;;;;;1022164;28;3158;-56
2022/08/24 00:42:39;;;;;;;;;;;;;;;;;;1022148;28;4039;-52
2022/08/24 00:43:10;;;;;;;;;;;;;;;;;;1021308;28;3191;-54
2022/08/24 00:43:49;;;;;;;;;;;;;;;;;;1019429;28;3964;-53
2022/08/24 00:44:19;;;;;;;;;;;;;;;;;;1020601;28;3830;-48
2022/08/24 00:44:50;;;;;;;;;;;;;;;;;;1025881;28;4036;-54
2022/08/24 00:45:23;;;;;;;;;;;;;;;;;;1023358;28;3725;-50
2022/08/24 00:46:00;;;;;;;;;;;;;;;;;;1025574;28;4083;-51
2022/08/24 00:46:40;;;;;;;;;;;;;;;;;;1024547;28;4047;-54
2022/08/24 00:47:15;;;;;;;;;;;;;;;;;;1021860;28;3639;-52
2022/08/24 00:47:50;;;;;;;;;;;;;;;;;;1022353;28;4077;-54
2022/08/24 00:48:23;;;;;;;;;;;;;;;;;;1021741;28;3827;-52
2022/08/24 00:49:00;;;;;;;;;;;;;;;;;;1020916;28;3727;-50
2022/08/24 00:50:02;;;;;;;;;;;;;;;;;;1025691;28;4170;-50
2022/08/24 00:50:37;;;;;;;;;;;;;;;;;;1013220;29;4102;-51
2022/08/24 00:51:12;;;;;;;;;;;;;;;;;;1012020;29;2236;-53
2022/08/24 00:51:47;;;;;;;;;;;;;;;;;;1016401;28;3862;-53
2022/08/24 00:52:20;;;;;;;;;;;;;;;;;;1020643;28;3798;-52
2022/08/24 00:52:55;;;;;;;;;;;;;;;;;;1021131;28;4003;-54
2022/08/24 00:53:45;;;;;;;;;;;;;;;;;;1020734;28;4286;-54
2022/08/24 00:54:16;;;;;;;;;;;;;;;;;;1020019;28;2962;-54
2022/08/24 00:54:50;;;;;;;;;;;;;;;;;;1022458;28;3887;-53
2022/08/24 00:55:31;;;;;;;;;;;;;;;;;;1022140;28;3544;-51
2022/08/24 00:56:05;;;;;;;;;;;;;;;;;;1021655;28;3784;-52
2022/08/24 00:56:39;;;;;;;;;;;;;;;;;;1022376;28;3890;-49
2022/08/24 00:57:10;;;;;;;;;;;;;;;;;;1022023;28;3795;-54
2022/08/24 00:57:42;;;;;;;;;;;;;;;;;;1022279;28;4069;-54
2022/08/24 00:58:20;;;;;;;;;;;;;;;;;;1021092;28;3557;-56
2022/08/24 00:58:55;;;;;;;;;;;;;;;;;;1021515;28;3828;-55
2022/08/24 00:59:29;;;;;;;;;;;;;;;;;;1021278;28;4089;-50
2022/08/24 01:00:04;;;;;;;;;;;;;;;;;;1021652;28;3216;-60
2022/08/24 01:00:39;;;;;;;;;;;;;;;;;;1021819;28;4065;-53
2022/08/24 01:01:12;;;;;;;;;;;;;;;;;;1021162;28;3171;-53
2022/08/24 01:01:43;;;;;;;;;;;;;;;;;;1019911;28;4112;-55
2022/08/24 01:02:16;;;;;;;;;;;;;;;;;;1022244;28;3721;-52
2022/08/24 01:02:47;;;;;;;;;;;;;;;;;;1022367;28;4031;-50
2022/08/24 01:03:18;;;;;;;;;;;;;;;;;;1021718;28;3762;-53
2022/08/24 01:03:48;;;;;;;;;;;;;;;;;;1018486;28;3932;-53
2022/08/24 01:04:21;;;;;;;;;;;;;;;;;;1021001;28;3036;-52
2022/08/24 01:04:53;;;;;;;;;;;;;;;;;;1021659;28;3815;-50
2022/08/24 01:05:24;;;;;;;;;;;;;;;;;;1022759;28;3938;-49
2022/08/24 01:05:55;;;;;;;;;;;;;;;;;;1021286;28;3215;-54
2022/08/24 01:06:25;;;;;;;;;;;;;;;;;;1020553;28;3928;-53
2022/08/24 01:06:56;;;;;;;;;;;;;;;;;;1017323;29;3134;-58
2022/08/24 01:07:28;;;;;;;;;;;;;;;;;;1016842;29;4335;-50
2022/08/24 01:07:59;;;;;;;;;;;;;;;;;;1015422;29;3163;-54
2022/08/24 01:08:29;;;;;;;;;;;;;;;;;;1018043;28;4067;-53
2022/08/24 01:09:00;;;;;;;;;;;;;;;;;;1021561;28;3860;-52
2022/08/24 01:09:30;;;;;;;;;;;;;;;;;;1019539;28;4081;-54
2022/08/24 01:10:04;;;;;;;;;;;;;;;;;;1021139;28;3249;-51
2022/08/24 01:10:36;;;;;;;;;;;;;;;;;;1021808;28;4297;-56
2022/08/24 01:11:10;;;;;;;;;;;;;;;;;;1022126;28;3250;-51
2022/08/24 01:11:41;;;;;;;;;;;;;;;;;;1023485;28;4052;-54
2022/08/24 01:12:11;;;;;;;;;;;;;;;;;;1023234;28;3242;-54
2022/08/24 01:12:44;;;;;;;;;;;;;;;;;;1023483;28;4097;-50
2022/08/24 01:13:15;;;;;;;;;;;;;;;;;;1020238;28;2933;-48
2022/08/24 01:13:47;;;;;;;;;;;;;;;;;;1022218;28;4209;-52
2022/08/24 01:14:18;;;;;;;;;;;;;;;;;;1018666;28;3823;-54
2022/08/24 01:14:48;;;;;;;;;;;;;;;;;;1020386;28;3989;-51
2022/08/24 01:15:19;;;;;;;;;;;;;;;;;;1020870;28;3943;-54
2022/08/24 01:15:51;;;;;;;;;;;;;;;;;;1022689;28;3868;-50
2022/08/24 01:18:50;;;;;;;;;;;;;;;;;;1020231;28;4068;-51
2022/08/24 01:19:35;;;;;;;;;;;;;;;;;;1019996;28;3776;-48
2022/08/24 01:20:07;;;;;;;;;;;;;;;;;;1020468;28;3894;-55
2022/08/24 01:20:37;;;;;;;;;;;;;;;;;;1021951;28;3955;-53
2022/08/24 01:21:14;;;;;;;;;;;;;;;;;;1019998;28;4167;-53
2022/08/24 01:21:55;;;;;;;;;;;;;;;;;;1019468;28;4081;-53
2022/08/24 01:22:45;;;;;;;;;;;;;;;;;;1022500;28;4039;-53
2022/08/24 01:23:27;;;;;;;;;;;;;;;;;;1019664;28;3816;-54
2022/08/24 01:23:59;;;;;;;;;;;;;;;;;;1020477;28;4011;-55
2022/08/24 01:24:29;;;;;;;;;;;;;;;;;;1020722;28;4107;-53
2022/08/24 01:25:00;;;;;;;;;;;;;;;;;;1021866;28;2547;-52
2022/08/24 01:25:31;;;;;;;;;;;;;;;;;;1021376;28;4104;-50
2022/08/24 01:26:17;;;;;;;;;;;;;;;;;;1021199;28;1581;-54
2022/08/24 01:26:49;;;;;;;;;;;;;;;;;;1016618;28;4219;-53
2022/08/24 01:27:19;;;;;;;;;;;;;;;;;;1016023;29;3139;-50
2022/08/24 01:27:50;;;;;;;;;;;;;;;;;;1016348;29;4007;-54
2022/08/24 01:28:21;;;;;;;;;;;;;;;;;;1018215;29;3862;-51
2022/08/24 01:28:54;;;;;;;;;;;;;;;;;;1013967;29;3848;-50
2022/08/24 01:29:26;;;;;;;;;;;;;;;;;;1015635;29;3930;-51
2022/08/24 01:29:58;;;;;;;;;;;;;;;;;;1017665;29;2498;-54
2022/08/24 01:30:29;;;;;;;;;;;;;;;;;;1014931;28;4659;-56
2022/08/24 01:31:00;;;;;;;;;;;;;;;;;;1017682;29;2934;-53
2022/08/24 01:31:30;;;;;;;;;;;;;;;;;;1015292;29;4116;-50
2022/08/24 01:32:01;;;;;;;;;;;;;;;;;;1017921;29;2154;-49
2022/08/24 01:32:31;;;;;;;;;;;;;;;;;;1016021;29;4086;-54
2022/08/24 01:33:04;;;;;;;;;;;;;;;;;;1017323;29;2845;-50
2022/08/24 01:33:35;;;;;;;;;;;;;;;;;;1017415;29;3905;-54
2022/08/24 01:34:05;;;;;;;;;;;;;;;;;;1016998;29;3014;-51
2022/08/24 01:34:35;;;;;;;;;;;;;;;;;;1016729;29;3809;-54
2022/08/24 01:35:06;;;;;;;;;;;;;;;;;;1016913;29;3733;-54
2022/08/24 01:35:43;;;;;;;;;;;;;;;;;;1018032;28;4117;-52
2022/08/24 01:36:13;;;;;;;;;;;;;;;;;;1017547;29;4248;-53
2022/08/24 01:36:48;;;;;;;;;;;;;;;;;;1016914;29;4066;-53
2022/08/24 01:37:18;;;;;;;;;;;;;;;;;;1016904;29;3736;-49
2022/08/24 01:37:50;;;;;;;;;;;;;;;;;;1018039;29;4136;-55
2022/08/24 01:38:20;;;;;;;;;;;;;;;;;;1017186;29;3662;-56
2022/08/24 01:38:50;;;;;;;;;;;;;;;;;;1018303;28;3824;-54
2022/08/24 01:39:24;;;;;;;;;;;;;;;;;;1015024;29;3834;-53
2022/08/24 01:39:56;;;;;;;;;;;;;;;;;;1015345;29;5967;-54
2022/08/24 01:40:31;;;;;;;;;;;;;;;;;;1017478;29;3930;-49
2022/08/24 01:41:02;;;;;;;;;;;;;;;;;;1017948;29;1969;-50
2022/08/24 01:41:33;;;;;;;;;;;;;;;;;;1018227;28;3890;-50
2022/08/24 01:42:03;;;;;;;;;;;;;;;;;;1018336;29;1757;-51
2022/08/24 01:42:35;;;;;;;;;;;;;;;;;;1013907;28;4971;-54
2022/08/24 01:43:06;;;;;;;;;;;;;;;;;;1015905;29;4472;-53
2022/08/24 01:43:36;;;;;;;;;;;;;;;;;;1016538;29;3936;-53
2022/08/24 01:44:06;;;;;;;;;;;;;;;;;;1014283;29;4215;-53
2022/08/24 01:44:38;;;;;;;;;;;;;;;;;;1017022;29;4244;-53
2022/08/24 01:45:09;;;;;;;;;;;;;;;;;;1016617;29;3510;-54
2022/08/24 01:45:40;;;;;;;;;;;;;;;;;;1017294;28;3912;-52
2022/08/24 01:46:10;;;;;;;;;;;;;;;;;;1016585;29;3764;-52
2022/08/24 01:46:48;;;;;;;;;;;;;;;;;;1017309;28;3941;-52
2022/08/24 01:47:19;;;;;;;;;;;;;;;;;;1016939;29;3765;-50
2022/08/24 01:47:49;;;;;;;;;;;;;;;;;;1016209;28;4071;-55
2022/08/24 01:48:20;;;;;;;;;;;;;;;;;;1016805;29;3747;-51
2022/08/24 01:48:50;;;;;;;;;;;;;;;;;;1017942;28;3754;-55
2022/08/24 01:49:25;;;;;;;;;;;;;;;;;;1017029;29;3825;-52
2022/08/24 01:49:55;;;;;;;;;;;;;;;;;;1017456;29;3802;-52
2022/08/24 01:50:25;;;;;;;;;;;;;;;;;;1016826;28;3977;-54
2022/08/24 01:50:56;;;;;;;;;;;;;;;;;;1018332;29;2420;-52
2022/08/24 01:51:30;;;;;;;;;;;;;;;;;;1017356;28;4175;-51
2022/08/24 01:52:01;;;;;;;;;;;;;;;;;;1017203;29;3345;-52
2022/08/24 01:52:32;;;;;;;;;;;;;;;;;;1016638;28;4237;-54
2022/08/24 01:53:03;;;;;;;;;;;;;;;;;;1015903;29;3581;-53
2022/08/24 01:53:34;;;;;;;;;;;;;;;;;;1017805;28;4006;-53
2022/08/24 01:54:04;;;;;;;;;;;;;;;;;;1016175;29;3121;-55
2022/08/24 01:54:34;;;;;;;;;;;;;;;;;;1013716;29;3949;-55
2022/08/24 01:55:06;;;;;;;;;;;;;;;;;;1013403;29;3428;-52
2022/08/24 01:55:36;;;;;;;;;;;;;;;;;;1012055;29;4067;-51
2022/08/24 01:56:07;;;;;;;;;;;;;;;;;;1013643;29;4181;-56
2022/08/24 01:56:37;;;;;;;;;;;;;;;;;;1017924;28;4357;-53
2022/08/24 01:57:08;;;;;;;;;;;;;;;;;;1016243;29;3697;-54
2022/08/24 01:57:38;;;;;;;;;;;;;;;;;;1017130;28;3830;-55
2022/08/24 01:58:08;;;;;;;;;;;;;;;;;;1017549;29;3601;-52
2022/08/24 01:58:46;;;;;;;;;;;;;;;;;;1017456;28;3923;-49
2022/08/24 01:59:18;;;;;;;;;;;;;;;;;;1017697;29;3398;-51
2022/08/24 01:59:48;;;;;;;;;;;;;;;;;;1017521;28;3866;-55
2022/08/24 02:00:19;;;;;;;;;;;;;;;;;;1019228;28;3283;-53
2022/08/24 02:00:49;;;;;;;;;;;;;;;;;;1022208;28;4389;-51
2022/08/24 02:01:19;;;;;;;;;;;;;;;;;;1020434;28;3069;-52
2022/08/24 02:01:52;;;;;;;;;;;;;;;;;;1021328;28;4397;-56
2022/08/24 02:02:25;;;;;;;;;;;;;;;;;;1016884;29;3366;-52
2022/08/24 02:02:56;;;;;;;;;;;;;;;;;;1017218;29;4926;-53
2022/08/24 02:03:26;;;;;;;;;;;;;;;;;;1018161;28;4238;-51
2022/08/24 02:04:01;;;;;;;;;;;;;;;;;;1017191;29;3125;-52
2022/08/24 02:04:33;;;;;;;;;;;;;;;;;;1016037;28;3910;-55
2022/08/24 02:05:03;;;;;;;;;;;;;;;;;;1016346;29;3112;-53
2022/08/24 02:05:34;;;;;;;;;;;;;;;;;;1014648;29;3905;-55
2022/08/24 02:06:04;;;;;;;;;;;;;;;;;;1016104;29;3626;-55
2022/08/24 02:06:35;;;;;;;;;;;;;;;;;;1017182;29;3959;-56
2022/08/24 02:07:07;;;;;;;;;;;;;;;;;;1018017;29;3712;-54
2022/08/24 02:07:38;;;;;;;;;;;;;;;;;;1017996;28;4028;-54
2022/08/24 02:08:09;;;;;;;;;;;;;;;;;;1016706;29;3262;-51
2022/08/24 02:08:39;;;;;;;;;;;;;;;;;;1017776;28;4115;-51
2022/08/24 02:09:09;;;;;;;;;;;;;;;;;;1016325;29;4092;-54
2022/08/24 02:09:40;;;;;;;;;;;;;;;;;;1017835;28;4049;-51
2022/08/24 02:10:11;;;;;;;;;;;;;;;;;;1018573;29;3740;-53
2022/08/24 02:10:41;;;;;;;;;;;;;;;;;;1017687;28;4072;-53
2022/08/24 02:11:12;;;;;;;;;;;;;;;;;;1016219;29;3855;-52
2022/08/24 02:11:42;;;;;;;;;;;;;;;;;;1016532;29;4129;-50
2022/08/24 02:12:12;;;;;;;;;;;;;;;;;;1018736;29;3760;-54
2022/08/24 02:12:44;;;;;;;;;;;;;;;;;;1018099;29;3865;-51
2022/08/24 02:13:14;;;;;;;;;;;;;;;;;;1018482;29;2867;-52
2022/08/24 02:13:44;;;;;;;;;;;;;;;;;;1017794;28;4059;-54
2022/08/24 02:14:15;;;;;;;;;;;;;;;;;;1015879;29;3413;-53
2022/08/24 02:14:46;;;;;;;;;;;;;;;;;;1017834;28;4073;-52
2022/08/24 02:15:16;;;;;;;;;;;;;;;;;;1018086;29;3759;-51
2022/08/24 02:15:46;;;;;;;;;;;;;;;;;;1018209;28;3898;-52
2022/08/24 02:16:17;;;;;;;;;;;;;;;;;;1018147;29;3417;-53
2022/08/24 02:16:47;;;;;;;;;;;;;;;;;;1017428;28;4060;-53
2022/08/24 02:17:17;;;;;;;;;;;;;;;;;;1016928;29;3759;-51
2022/08/24 02:17:48;;;;;;;;;;;;;;;;;;1017915;29;3913;-54
2022/08/24 02:18:18;;;;;;;;;;;;;;;;;;1017765;29;3896;-51
2022/08/24 02:18:49;;;;;;;;;;;;;;;;;;1018234;29;4042;-55
2022/08/24 02:19:19;;;;;;;;;;;;;;;;;;1017708;29;3367;-51
2022/08/24 02:19:49;;;;;;;;;;;;;;;;;;1017961;29;3866;-52
2022/08/24 02:20:20;;;;;;;;;;;;;;;;;;1017260;29;3282;-55
2022/08/24 02:20:52;;;;;;;;;;;;;;;;;;1018265;29;3996;-51
2022/08/24 02:21:22;;;;;;;;;;;;;;;;;;1017356;29;2977;-54
2022/08/24 02:21:52;;;;;;;;;;;;;;;;;;1018447;29;3725;-53
2022/08/24 02:22:22;;;;;;;;;;;;;;;;;;1018000;29;2404;-49
2022/08/24 02:22:53;;;;;;;;;;;;;;;;;;1019145;29;9462;-51
2022/08/24 02:23:24;;;;;;;;;;;;;;;;;;1018265;28;4302;-52
2022/08/24 02:23:54;;;;;;;;;;;;;;;;;;1019544;29;1817;-54
2022/08/24 02:24:24;;;;;;;;;;;;;;;;;;1016101;28;4105;-53
2022/08/24 02:24:55;;;;;;;;;;;;;;;;;;1018382;29;3485;-52
2022/08/24 02:25:29;;;;;;;;;;;;;;;;;;1018474;28;4101;-55
2022/08/24 02:25:59;;;;;;;;;;;;;;;;;;1019366;29;2138;-48
2022/08/24 02:26:44;;;;;;;;;;;;;;;;;;1018483;28;4327;-51
2022/08/24 02:27:21;;;;;;;;;;;;;;;;;;1021322;28;3546;-54
2022/08/24 02:27:59;;;;;;;;;;;;;;;;;;1021199;28;3816;-50
2022/08/24 02:28:29;;;;;;;;;;;;;;;;;;1020770;28;3816;-51
2022/08/24 02:28:59;;;;;;;;;;;;;;;;;;1023464;28;1755;-53
2022/08/24 02:29:29;;;;;;;;;;;;;;;;;;1020756;28;3984;-53
2022/08/24 02:30:00;;;;;;;;;;;;;;;;;;1017800;29;3992;-51
2022/08/24 02:30:30;;;;;;;;;;;;;;;;;;1016316;29;4132;-52
2022/08/24 02:31:01;;;;;;;;;;;;;;;;;;1018807;29;1836;-49
2022/08/24 02:31:32;;;;;;;;;;;;;;;;;;1019200;28;3956;-54
2022/08/24 02:32:04;;;;;;;;;;;;;;;;;;1023270;28;1681;-50
2022/08/24 02:32:34;;;;;;;;;;;;;;;;;;1019132;28;4138;-52
2022/08/24 02:33:05;;;;;;;;;;;;;;;;;;1021037;28;3534;-54
2022/08/24 02:33:36;;;;;;;;;;;;;;;;;;1021314;28;4096;-54
2022/08/24 02:34:06;;;;;;;;;;;;;;;;;;1018774;28;4049;-52
2022/08/24 02:34:37;;;;;;;;;;;;;;;;;;1021335;28;3888;-56
2022/08/24 02:35:08;;;;;;;;;;;;;;;;;;1023424;28;2596;-55
2022/08/24 02:35:40;;;;;;;;;;;;;;;;;;1022448;28;4026;-49
2022/08/24 02:36:12;;;;;;;;;;;;;;;;;;1022342;28;3614;-53
2022/08/24 02:36:43;;;;;;;;;;;;;;;;;;1022985;28;4046;-52
2022/08/24 02:37:13;;;;;;;;;;;;;;;;;;1022206;28;3726;-48
2022/08/24 02:37:43;;;;;;;;;;;;;;;;;;1022682;28;4160;-56
2022/08/24 02:38:13;;;;;;;;;;;;;;;;;;1023201;28;1921;-50
2022/08/24 02:38:44;;;;;;;;;;;;;;;;;;1022816;28;4799;-52
2022/08/24 02:39:14;;;;;;;;;;;;;;;;;;1021941;28;2788;-54
2022/08/24 02:39:44;;;;;;;;;;;;;;;;;;1019987;28;4065;-51
2022/08/24 02:40:15;;;;;;;;;;;;;;;;;;1022012;28;3796;-54
2022/08/24 02:40:45;;;;;;;;;;;;;;;;;;1022744;28;3872;-53
2022/08/24 02:41:16;;;;;;;;;;;;;;;;;;1021448;28;2994;-56
2022/08/24 02:41:46;;;;;;;;;;;;;;;;;;1017196;29;4043;-50
2022/08/24 02:42:16;;;;;;;;;;;;;;;;;;1018140;29;3843;-52
2022/08/24 02:42:47;;;;;;;;;;;;;;;;;;1018513;29;4209;-53
2022/08/24 02:43:17;;;;;;;;;;;;;;;;;;1021242;28;2922;-53
2022/08/24 02:43:47;;;;;;;;;;;;;;;;;;1020473;28;4751;-56
2022/08/24 02:44:18;;;;;;;;;;;;;;;;;;1018955;28;2775;-53
2022/08/24 02:44:48;;;;;;;;;;;;;;;;;;1021566;28;4038;-51
2022/08/24 02:45:18;;;;;;;;;;;;;;;;;;1021220;28;3646;-54
2022/08/24 02:45:49;;;;;;;;;;;;;;;;;;1022194;28;4147;-54
2022/08/24 02:46:20;;;;;;;;;;;;;;;;;;1021384;28;2948;-51
2022/08/24 02:46:51;;;;;;;;;;;;;;;;;;1022707;28;4395;-53
2022/08/24 02:47:22;;;;;;;;;;;;;;;;;;1022149;28;3739;-53
2022/08/24 02:47:52;;;;;;;;;;;;;;;;;;1020561;28;3883;-51
2022/08/24 02:48:23;;;;;;;;;;;;;;;;;;1022137;28;3231;-53
2022/08/24 02:48:53;;;;;;;;;;;;;;;;;;1022308;28;3688;-55
2022/08/24 02:49:24;;;;;;;;;;;;;;;;;;1022136;28;4087;-51
2022/08/24 02:49:54;;;;;;;;;;;;;;;;;;1023336;28;2949;-54
2022/08/24 02:50:27;;;;;;;;;;;;;;;;;;1021305;28;3839;-54
2022/08/24 02:50:57;;;;;;;;;;;;;;;;;;1022995;28;1374;-49
2022/08/24 02:51:29;;;;;;;;;;;;;;;;;;1020966;28;4051;-53
2022/08/24 02:51:59;;;;;;;;;;;;;;;;;;1023483;28;1550;-53
2022/08/24 02:52:29;;;;;;;;;;;;;;;;;;1021670;28;3902;-53
2022/08/24 02:53:00;;;;;;;;;;;;;;;;;;1023227;28;1654;-53
2022/08/24 02:53:30;;;;;;;;;;;;;;;;;;1021759;28;4061;-54
2022/08/24 02:54:01;;;;;;;;;;;;;;;;;;1022421;28;3451;-52
2022/08/24 02:54:31;;;;;;;;;;;;;;;;;;1018521;28;3949;-56
2022/08/24 02:55:02;;;;;;;;;;;;;;;;;;1022304;28;3504;-50
2022/08/24 02:55:32;;;;;;;;;;;;;;;;;;1018777;28;4332;-52
2022/08/24 02:56:03;;;;;;;;;;;;;;;;;;1020003;28;3773;-53
2022/08/24 02:56:33;;;;;;;;;;;;;;;;;;1021418;28;4065;-54
2022/08/24 02:57:04;;;;;;;;;;;;;;;;;;1022729;28;2894;-54
2022/08/24 02:57:34;;;;;;;;;;;;;;;;;;1021147;28;4059;-54
2022/08/24 02:58:04;;;;;;;;;;;;;;;;;;1022601;28;3628;-54
2022/08/24 02:58:35;;;;;;;;;;;;;;;;;;1018302;28;4088;-51
2022/08/24 02:59:05;;;;;;;;;;;;;;;;;;1018143;28;7012;-53
2022/08/24 02:59:35;;;;;;;;;;;;;;;;;;1019983;28;6250;-54
2022/08/24 03:00:08;;;;;;;;;;;;;;;;;;1017104;29;3662;-50
2022/08/24 03:00:43;;;;;;;;;;;;;;;;;;1014927;28;3898;-56
2022/08/24 03:01:14;;;;;;;;;;;;;;;;;;1020346;28;3528;-50
2022/08/24 03:01:45;;;;;;;;;;;;;;;;;;1020819;28;3880;-50
2022/08/24 03:02:17;;;;;;;;;;;;;;;;;;1021237;28;2875;-51
2022/08/24 03:02:47;;;;;;;;;;;;;;;;;;1019900;28;4075;-53
2022/08/24 03:03:18;;;;;;;;;;;;;;;;;;1019685;28;3875;-50
2022/08/24 03:03:48;;;;;;;;;;;;;;;;;;1016899;29;3988;-50
2022/08/24 03:04:19;;;;;;;;;;;;;;;;;;1018155;29;2808;-55
2022/08/24 03:04:49;;;;;;;;;;;;;;;;;;1020288;28;3984;-54
2022/08/24 03:05:20;;;;;;;;;;;;;;;;;;1020890;28;2987;-53
2022/08/24 03:05:50;;;;;;;;;;;;;;;;;;1021617;28;4016;-52
2022/08/24 03:06:21;;;;;;;;;;;;;;;;;;1021867;28;3315;-53
2022/08/24 03:06:51;;;;;;;;;;;;;;;;;;1022075;28;4165;-51
2022/08/24 03:07:21;;;;;;;;;;;;;;;;;;1022167;28;2724;-55
2022/08/24 03:07:52;;;;;;;;;;;;;;;;;;1022884;28;4040;-50
2022/08/24 03:08:22;;;;;;;;;;;;;;;;;;1021939;28;3028;-52
2022/08/24 03:08:52;;;;;;;;;;;;;;;;;;1021975;28;3989;-51
2022/08/24 03:09:22;;;;;;;;;;;;;;;;;;1023269;28;1907;-53
2022/08/24 03:09:53;;;;;;;;;;;;;;;;;;1021732;28;3961;-53
2022/08/24 03:10:23;;;;;;;;;;;;;;;;;;1021725;28;3986;-54
2022/08/24 03:10:53;;;;;;;;;;;;;;;;;;1022203;28;2917;-55
2022/08/24 03:11:24;;;;;;;;;;;;;;;;;;1021203;28;3815;-51
2022/08/24 03:11:55;;;;;;;;;;;;;;;;;;1021355;28;2980;-54
2022/08/24 03:12:25;;;;;;;;;;;;;;;;;;1022556;28;4235;-50
2022/08/24 03:12:55;;;;;;;;;;;;;;;;;;1021593;28;3331;-54
2022/08/24 03:13:26;;;;;;;;;;;;;;;;;;1021028;28;3904;-53
2022/08/24 03:13:57;;;;;;;;;;;;;;;;;;1023219;28;1284;-55
2022/08/24 03:14:28;;;;;;;;;;;;;;;;;;1020735;28;4051;-54
2022/08/24 03:14:58;;;;;;;;;;;;;;;;;;1025482;28;4639;-52
2022/08/24 03:15:28;;;;;;;;;;;;;;;;;;1017582;29;3916;-55
2022/08/24 03:15:59;;;;;;;;;;;;;;;;;;1018400;29;1711;-53
2022/08/24 03:16:30;;;;;;;;;;;;;;;;;;1017422;29;3912;-55
2022/08/24 03:17:00;;;;;;;;;;;;;;;;;;1019098;29;1433;-53
2022/08/24 03:17:32;;;;;;;;;;;;;;;;;;1022045;28;3888;-53
2022/08/24 03:18:02;;;;;;;;;;;;;;;;;;1020539;28;3125;-58
2022/08/24 03:18:33;;;;;;;;;;;;;;;;;;1020183;28;5555;-51
2022/08/24 03:19:03;;;;;;;;;;;;;;;;;;1021203;28;3229;-52
2022/08/24 03:19:33;;;;;;;;;;;;;;;;;;1019513;28;4419;-53
2022/08/24 03:20:05;;;;;;;;;;;;;;;;;;1021931;28;2862;-55
2022/08/24 03:20:35;;;;;;;;;;;;;;;;;;1021278;28;3912;-52
2022/08/24 03:21:05;;;;;;;;;;;;;;;;;;1021133;28;2481;-55
2022/08/24 03:21:36;;;;;;;;;;;;;;;;;;1020862;28;4921;-50
2022/08/24 03:22:06;;;;;;;;;;;;;;;;;;1022231;28;3639;-53
2022/08/24 03:22:37;;;;;;;;;;;;;;;;;;1019896;28;3797;-55
2022/08/24 03:23:07;;;;;;;;;;;;;;;;;;1022147;28;3496;-54
2022/08/24 03:23:38;;;;;;;;;;;;;;;;;;1021790;28;3905;-54
2022/08/24 03:24:09;;;;;;;;;;;;;;;;;;1022275;28;3826;-53
2022/08/24 03:24:39;;;;;;;;;;;;;;;;;;1021767;28;3959;-51
2022/08/24 03:25:13;;;;;;;;;;;;;;;;;;1021593;28;3481;-51
2022/08/24 03:25:51;;;;;;;;;;;;;;;;;;1021554;28;4029;-54
2022/08/24 03:26:34;;;;;;;;;;;;;;;;;;1021015;28;3480;-54
2022/08/24 03:27:12;;;;;;;;;;;;;;;;;;1022437;28;4005;-53
2022/08/24 03:27:43;;;;;;;;;;;;;;;;;;1019956;28;4034;-53
2022/08/24 03:28:13;;;;;;;;;;;;;;;;;;1019196;28;3971;-53
2022/08/24 03:28:43;;;;;;;;;;;;;;;;;;1021081;28;3874;-53
2022/08/24 03:29:14;;;;;;;;;;;;;;;;;;1022225;28;3955;-52
2022/08/24 03:29:44;;;;;;;;;;;;;;;;;;1021958;28;3918;-54
2022/08/24 03:30:15;;;;;;;;;;;;;;;;;;1022237;28;3006;-52
2022/08/24 03:30:45;;;;;;;;;;;;;;;;;;1022291;28;3962;-52
2022/08/24 03:31:16;;;;;;;;;;;;;;;;;;1022194;28;3748;-55
2022/08/24 03:31:47;;;;;;;;;;;;;;;;;;1021945;28;3905;-54
2022/08/24 03:32:17;;;;;;;;;;;;;;;;;;1021780;28;3927;-53
2022/08/24 03:32:48;;;;;;;;;;;;;;;;;;1023545;28;3863;-54
2022/08/24 03:33:18;;;;;;;;;;;;;;;;;;1025097;28;3771;-51
2022/08/24 03:33:49;;;;;;;;;;;;;;;;;;1024891;28;3952;-53
2022/08/24 03:34:19;;;;;;;;;;;;;;;;;;1025319;28;5632;-53
2022/08/24 03:34:50;;;;;;;;;;;;;;;;;;1022662;28;4038;-52
2022/08/24 03:35:21;;;;;;;;;;;;;;;;;;1019976;28;3025;-54
2022/08/24 03:35:52;;;;;;;;;;;;;;;;;;1020612;28;4018;-56
2022/08/24 03:36:22;;;;;;;;;;;;;;;;;;1020590;28;3351;-54
2022/08/24 03:36:53;;;;;;;;;;;;;;;;;;1021131;28;3822;-54
2022/08/24 03:37:24;;;;;;;;;;;;;;;;;;1020988;28;4148;-50
2022/08/24 03:37:54;;;;;;;;;;;;;;;;;;1020241;28;3847;-54
2022/08/24 03:38:24;;;;;;;;;;;;;;;;;;1021611;28;3828;-53
2022/08/24 03:38:55;;;;;;;;;;;;;;;;;;1023021;28;1820;-56
2022/08/24 03:39:25;;;;;;;;;;;;;;;;;;1021137;28;3893;-49
2022/08/24 03:39:55;;;;;;;;;;;;;;;;;;1020451;28;3694;-54
2022/08/24 03:40:26;;;;;;;;;;;;;;;;;;1021627;28;4064;-54
2022/08/24 03:40:56;;;;;;;;;;;;;;;;;;1022807;28;1682;-51
2022/08/24 03:41:27;;;;;;;;;;;;;;;;;;1021270;28;4131;-57
2022/08/24 03:41:57;;;;;;;;;;;;;;;;;;1022618;29;1356;-53
2022/08/24 03:42:27;;;;;;;;;;;;;;;;;;1018718;28;4126;-51